Aviation Digital Data Service (ADDS)

Output produced by METARs form (1921 UTC 29 April 2017)
found at http://www.aviationweather.gov/adds/metars/
 
KROW 291851Z 34014KT 9SM -RA SCT008 BKN012 OVC023 04/02 A2994 RMK AO2 SLP116 P0008 T00390017 $
KROW 291848Z 35016KT 8SM -RA BKN008 BKN014 OVC021 04/02 A2994 RMK AO2 P0008 $
KROW 291814Z COR 34009KT 4SM RA BKN014 OVC019 05/02 A2992 RMK AO2 P0005 T00500022 $
KROW 291751Z 36010KT 9SM -RA OVC015 06/02 RMK AO2 RAE06B47 SLPNO P0000 60007 T00560022 10072 20044 $
KROW 291651Z 07011KT 10SM -RA OVC015 06/02 A2990 RMK AO2 SLP096 P0000 T00560022 $
KROW 291551Z 06015KT 10SM -RA BKN014 OVC048 04/02 A2991 RMK AO2 PK WND 03029/1500 SLP098 P0001 T00440022 $
KROW 291532Z 04015KT 10SM -RA BKN014 OVC042 04/02 RMK AO2 PK WND 03029/1500 P0000 T00440017 $
KROW 291503Z COR 04022G29KT 10SM -RA BKN013 BKN036 OVC045 04/02 A2989 RMK AO2 PK WND 03029/1500 P0000 T00440017 $
KROW 291451Z 03015G24KT 10SM -RA FEW010 SCT014 OVC038 04/02 RMK AO2 PK WND 04032/1429 SLPNO P0001 60006 T00440022 $
KROW 291441Z 02019G28KT 10SM -RA SCT014 OVC038 05/02 RMK AO2 PK WND 04032/1429 P0001 T00500022 $
KROW 291433Z 03021G32KT 10SM -RA FEW011 BKN016 OVC036 05/02 RMK AO2 PK WND 04032/1429 P0000 T00500022 $
KROW 291422Z 03018G24KT 10SM -RA BKN013 BKN035 OVC060 06/04 RMK AO2 PK WND 03026/1410 P0000 T00610039 $
KROW 291413Z 02019G26KT 10SM -RA SCT011 BKN016 OVC055 07/04 RMK AO2 PK WND 03026/1410 P0000 T00670044 $
KROW 291407Z 02017KT 10SM -RA BKN009 BKN018 OVC060 07/05 RMK AO2 P0000 T00720050 $
KROW 291351Z 03015KT 10SM -RA SCT009 BKN060 OVC070 07/05 A2989 RMK AO2 SLP084 P0001 T00720050 $
KROW 291338Z 03013KT 10SM -RA FEW009 BKN065 OVC075 07/05 RMK AO2 P0001 T00720050 $
KROW 291251Z COR 36012KT 10SM -RA BKN049 OVC065 07/04 A2988 RMK AO2 SLPNO P0004 T00670044 $
KROW 291151Z 35011KT 8SM RA FEW017 OVC039 07/05 RMK AO2 SLPNO P0005 60009 70009 T00670050 10106 20067 $
KROW 291051Z AUTO 35018KT 9SM -RA BKN047 OVC055 07/04 RMK AO2 SLPNO P0003 T00670044 $
KROW 290951Z AUTO 35019G26KT 10SM -RA OVC030 07/04 RMK AO2 PK WND 33029/0912 RAB0852E19B39 SLPNO P0001 T00720039 $
KROW 290947Z AUTO 34016G26KT 9SM -RA OVC030 07/04 RMK AO2 PK WND 33029/0912 RAB0852E19B39 P0001 $
KROW 290851Z AUTO 32015G25KT 10SM BKN021 OVC027 09/04 RMK AO2 SLPNO T00890039 $
KROW 290831Z AUTO 34016G23KT 10SM SCT020 BKN026 OVC036 09/04 RMK AO2 T00890039 $
KROW 290751Z AUTO 33017G23KT 10SM OVC038 10/04 RMK AO2 SLPNO T01000044 $
KROW 290651Z AUTO 32013KT 10SM SCT039 11/04 RMK AO2 LTG DSNT NW SLPNO T01060044 403060089 $
KROW 290551Z AUTO 33015KT 10SM CLR 11/04 RMK AO2 LTG DSNT NW SLPNO T01060039 10206 20106 $
KROW 290451Z AUTO 35014KT 10SM CLR 12/03 RMK AO2 SLPNO T01220028 $
KROW 290351Z AUTO 03018G24KT 10SM CLR 14/03 RMK AO2 PK WND 03030/0322 LTG DSNT W AND NW SLPNO T01440028 $
KROW 290251Z AUTO 01020G25KT 10SM CLR 16/02 A2970 RMK AO2 PK WND 03027/0210 SLP007 T01610022 53034 $
KROW 290151Z 02018G25KT 10SM CLR 17/02 A2966 RMK AO2 PK WND 02031/0056 SLP997 T01720022 $
KROW 290051Z 02024G29KT 10SM FEW120 18/02 A2962 RMK AO2 PK WND 02030/2358 SLP985 T01830017 $
KROW 282351Z 02026G34KT 10SM BKN110 21/02 A2959 RMK AO2 PK WND 02034/2346 WSHFT 2324 SLP968 T02060017 10306 20206 $
KROW 282338Z 02021G30KT 10SM SCT120 22/02 RMK AO2 PK WND 03030/2336 WSHFT 2324 T02220017 $
KROW 282251Z 26015KT 10SM FEW110 28/M01 A2954 RMK AO2 PK WND 26026/2226 SLP943 T02831006 $
KROW 282151Z AUTO 23011G19KT 10SM FEW110 29/02 RMK AO2 PK WND 24026/2055 SLPNO T02940017 $
KROW 282051Z AUTO 24017G31KT 10SM FEW110 30/01 A2954 RMK AO2 PK WND 29034/2011 SLP938 T03000011 $
KROW 281951Z 26022G32KT 10SM BKN110 28/00 RMK AO2 PK WND 24034/1935 SLPNO T02830000 $
KROW 291724Z 2918/3018 04013KT P6SM -SHRA BKN015 OVC035 
     FM300200 35015KT P6SM OVC050 
     FM300900 31008KT P6SM SCT070 BKN120